Time;durP1;ratioP1;P1;durP2;ratioP2;P2;SDS_P1;SDS_P2;PMS_P1;PMS_P2;Temp;Humidity;BMP_temperature;BMP_pressure;BME280_temperature;BME280_humidity;BME280_pressure;Samples;Min_cycle;Max_cycle;Signal;HPM_P1;HPM_P2
2022/10/18 00:00:42;;;;;;;16.80;8.93;;;;;;;11.29;54.79;101349.66;5069984;28;20035;-41
2022/10/18 00:03:08;;;;;;;16.55;9.02;;;;;;;11.34;55.30;101350.00;5069891;28;20457;-41
2022/10/18 00:05:34;;;;;;;16.70;8.63;;;;;;;11.49;54.44;101347.47;5070064;28;20036;-41
2022/10/18 00:08:00;;;;;;;16.25;8.98;;;;;;;11.63;54.56;101332.59;5069941;28;20039;-41
2022/10/18 00:10:26;;;;;;;15.20;8.80;;;;;;;11.57;54.32;101352.78;5069843;28;20178;-41
2022/10/18 00:12:52;;;;;;;14.10;8.20;;;;;;;11.68;54.69;101344.41;5070083;28;20028;-41
2022/10/18 00:15:17;;;;;;;14.32;8.63;;;;;;;11.67;54.01;101341.91;5070124;28;20567;-41
2022/10/18 00:17:43;;;;;;;12.65;8.70;;;;;;;11.50;53.84;101322.50;5070052;28;20484;-41
2022/10/18 00:20:09;;;;;;;11.55;8.20;;;;;;;11.44;54.75;101332.00;5069921;28;20021;-41
2022/10/18 00:22:39;;;;;;;13.95;8.23;;;;;;;11.47;54.58;101334.31;5069484;28;20052;-40
2022/10/18 00:25:07;;;;;;;16.92;7.97;;;;;;;11.57;53.44;101331.44;5069793;28;20495;-41
2022/10/18 00:27:33;;;;;;;13.10;7.68;;;;;;;11.61;54.11;101335.44;5069643;28;20032;-42
2022/10/18 00:29:59;;;;;;;13.98;8.13;;;;;;;11.57;53.62;101318.13;5069447;28;20086;-43
2022/10/18 00:32:25;;;;;;;12.68;7.47;;;;;;;11.51;53.72;101316.16;5069329;28;20032;-43
2022/10/18 00:34:50;;;;;;;13.50;7.72;;;;;;;11.52;53.42;101309.81;5069436;28;20491;-40
2022/10/18 00:37:16;;;;;;;11.63;7.22;;;;;;;11.31;53.71;101316.53;5069610;28;20033;-41
2022/10/18 00:39:42;;;;;;;13.68;7.40;;;;;;;11.31;54.31;101310.38;5069176;28;20496;-41
2022/10/18 00:42:15;;;;;;;10.80;7.15;;;;;;;11.25;54.19;101324.38;5069408;28;20025;-41
2022/10/18 00:44:40;;;;;;;10.75;7.05;;;;;;;11.43;53.14;101318.84;5069494;28;20034;-41
2022/10/18 00:47:08;;;;;;;10.70;6.57;;;;;;;11.31;52.93;101316.53;5069276;28;20111;-41
2022/10/18 00:49:41;;;;;;;11.07;6.65;;;;;;;11.23;53.41;101303.25;5068750;28;20480;-41
2022/10/18 00:52:17;;;;;;;15.25;6.88;;;;;;;10.90;54.03;101311.25;5068760;28;20020;-41
2022/10/18 00:54:45;;;;;;;11.90;6.72;;;;;;;10.79;54.60;101322.22;5069096;28;20091;-41
2022/10/18 00:57:12;;;;;;;13.45;6.60;;;;;;;10.64;54.96;101313.25;5069216;28;20032;-41
2022/10/18 00:59:38;;;;;;;10.38;6.50;;;;;;;10.47;55.00;101309.72;5071703;28;20029;-41
2022/10/18 01:02:05;;;;;;;11.27;6.85;;;;;;;10.65;54.38;101307.75;5072544;28;20082;-41
2022/10/18 01:04:31;;;;;;;11.80;6.28;;;;;;;10.80;54.58;101307.94;5072481;28;20519;-46
2022/10/18 01:07:00;;;;;;;10.90;6.20;;;;;;;10.85;53.76;101299.44;5072644;28;20116;-46
2022/10/18 01:10:05;;;;;;;10.63;6.23;;;;;;;11.01;54.18;101296.75;5072534;28;20089;-46
2022/10/18 01:12:54;;;;;;;13.50;6.30;;;;;;;11.14;53.14;101301.59;5050756;28;20270;-46
2022/10/18 01:15:28;;;;;;;8.90;6.03;;;;;;;10.65;54.11;101304.28;5072231;28;20028;-46
2022/10/18 01:18:24;;;;;;;10.20;6.28;;;;;;;10.75;54.96;101308.41;5072066;28;20024;-45
2022/10/18 01:21:11;;;;;;;9.82;6.43;;;;;;;10.81;54.53;101309.59;5071901;28;20052;-48
2022/10/18 01:23:40;;;;;;;10.10;6.03;;;;;;;10.85;54.12;101310.09;5071937;28;20039;-46
2022/10/18 01:26:34;;;;;;;13.23;6.82;;;;;;;10.95;53.47;101303.59;5071954;28;20036;-48
2022/10/18 01:29:16;;;;;;;13.50;6.85;;;;;;;11.17;53.66;101293.22;5069612;28;20123;-46
2022/10/18 01:31:46;;;;;;;11.57;6.55;;;;;;;11.05;53.04;101299.94;5071923;28;20032;-48
2022/10/18 01:34:15;;;;;;;11.85;6.47;;;;;;;11.14;53.02;101296.25;5071710;28;20020;-46
2022/10/18 01:36:44;;;;;;;9.48;6.97;;;;;;;11.18;52.97;101300.25;5071646;28;20032;-47
2022/10/18 01:39:17;;;;;;;16.08;6.90;;;;;;;11.22;53.19;101292.75;5071486;28;20036;-47
2022/10/18 01:41:45;;;;;;;9.65;6.63;;;;;;;11.10;53.33;101286.91;5071614;28;20393;-47
2022/10/18 01:44:16;;;;;;;11.30;7.05;;;;;;;11.07;53.38;101292.59;5071710;28;20028;-47
2022/10/18 01:46:45;;;;;;;10.70;6.30;;;;;;;10.99;53.46;101296.09;5070179;28;20036;-47
2022/10/18 01:49:10;;;;;;;12.85;7.25;;;;;;;11.12;52.78;101290.25;5071721;28;20032;-47
2022/10/18 01:51:36;;;;;;;11.43;7.28;;;;;;;11.01;53.90;101302.09;5071055;28;20017;-47
2022/10/18 01:54:01;;;;;;;10.55;7.07;;;;;;;11.06;53.59;101296.25;5071267;28;20416;-46
2022/10/18 01:56:27;;;;;;;11.88;7.00;;;;;;;10.93;54.00;101296.78;5071530;28;20032;-46
2022/10/18 01:59:14;;;;;;;14.07;7.45;;;;;;;10.96;53.99;101286.59;5071446;28;20078;-47
2022/10/18 02:02:05;;;;;;;16.52;7.15;;;;;;;11.08;53.87;101292.44;5071303;28;20345;-46
2022/10/18 02:05:03;;;;;;;9.98;7.07;;;;;;;10.92;54.29;101293.25;5071356;28;20389;-47
2022/10/18 02:08:11;;;;;;;8.82;6.93;;;;;;;11.12;52.79;101285.75;5059868;28;20037;-47
2022/10/18 02:10:46;;;;;;;14.98;7.68;;;;;;;11.05;53.84;101286.59;5070221;28;20129;-46
2022/10/18 02:13:15;;;;;;;15.80;8.13;;;;;;;10.92;54.25;101282.63;5070612;28;20024;-46
2022/10/18 02:15:45;;;;;;;12.98;7.60;;;;;;;10.81;54.24;101264.31;5070693;28;20380;-46
2022/10/18 02:18:17;;;;;;;13.50;7.65;;;;;;;10.84;54.64;101271.97;5070672;28;20036;-46
2022/10/18 02:20:44;;;;;;;12.57;7.43;;;;;;;10.94;54.47;101261.97;5070280;28;20056;-47
2022/10/18 02:23:10;;;;;;;12.30;7.45;;;;;;;11.04;54.09;101263.63;5063758;28;20473;-46
2022/10/18 02:25:37;;;;;;;13.00;7.70;;;;;;;10.99;53.96;101261.47;5052094;28;20024;-46
2022/10/18 02:28:04;;;;;;;11.25;6.75;;;;;;;11.09;52.97;101271.94;5050259;28;20029;-46
2022/10/18 02:30:36;;;;;;;9.65;6.53;;;;;;;10.88;53.42;101277.81;5049912;28;20029;-41
2022/10/18 02:33:10;;;;;;;12.20;6.93;;;;;;;10.78;54.05;101271.84;5050113;28;20021;-41
2022/10/18 02:35:43;;;;;;;10.75;7.13;;;;;;;10.98;52.56;101281.09;5050070;28;20058;-42
2022/10/18 02:38:11;;;;;;;10.13;6.53;;;;;;;10.85;52.76;101278.97;5050144;28;20036;-42
2022/10/18 02:40:36;;;;;;;12.63;6.78;;;;;;;10.71;52.60;101282.31;5049974;28;20043;-41
2022/10/18 02:43:05;;;;;;;12.75;7.78;;;;;;;10.78;52.58;101277.16;5050109;28;20028;-41
2022/10/18 02:45:31;;;;;;;9.18;6.85;;;;;;;10.78;53.47;101277.97;5050514;28;20029;-41
2022/10/18 02:47:57;;;;;;;10.77;7.25;;;;;;;10.81;52.99;101277.63;5068917;28;20500;-42
2022/10/18 02:50:22;;;;;;;10.90;6.75;;;;;;;10.70;52.28;101289.47;5070569;28;20062;-42
2022/10/18 02:52:48;;;;;;;10.85;6.70;;;;;;;10.60;52.99;101288.78;5070539;28;20056;-41
2022/10/18 02:55:13;;;;;;;10.70;7.03;;;;;;;10.71;52.50;101282.31;5070428;28;20150;-42
2022/10/18 02:57:38;;;;;;;9.77;6.70;;;;;;;10.84;51.89;101285.28;5070289;28;20058;-42
2022/10/18 03:00:05;;;;;;;11.18;6.72;;;;;;;10.60;52.82;101256.84;5070066;28;20517;-42
2022/10/18 03:02:31;;;;;;;11.35;6.90;;;;;;;10.50;53.55;101285.47;5070300;28;20086;-40
2022/10/18 03:04:56;;;;;;;12.02;6.95;;;;;;;10.70;52.53;101288.63;5070633;28;20024;-41
2022/10/18 03:07:22;;;;;;;9.68;6.70;;;;;;;10.76;52.84;101294.13;5070585;28;20111;-44
2022/10/18 03:09:47;;;;;;;11.25;6.65;;;;;;;10.72;52.18;101299.97;5070374;28;20414;-43
2022/10/18 03:12:13;;;;;;;12.68;7.00;;;;;;;10.59;52.68;101296.97;5070403;28;20025;-43
2022/10/18 03:14:38;;;;;;;10.63;7.15;;;;;;;10.51;53.85;101309.25;5070176;28;20021;-41
2022/10/18 03:17:04;;;;;;;11.80;7.50;;;;;;;10.41;54.09;101294.44;5070220;28;20480;-40
2022/10/18 03:19:29;;;;;;;13.60;7.60;;;;;;;10.53;53.30;101296.63;5070368;28;20043;-41
2022/10/18 03:21:54;;;;;;;11.63;7.47;;;;;;;10.68;53.56;101295.94;5068746;28;20469;-41
2022/10/18 03:24:20;;;;;;;13.57;7.78;;;;;;;10.53;53.46;101301.94;5070035;28;20028;-41
2022/10/18 03:26:45;;;;;;;11.50;7.28;;;;;;;10.42;53.57;101302.25;5069742;28;20120;-40
2022/10/18 03:29:11;;;;;;;225.65;106.90;;;;;;;10.30;54.24;101304.41;5069885;28;20078;-40
2022/10/18 03:31:37;;;;;;;41.13;21.05;;;;;;;10.32;54.38;101307.72;5069978;28;20499;-43
2022/10/18 03:34:02;;;;;;;35.33;18.55;;;;;;;10.16;54.38;101302.34;5070034;28;20546;-41
2022/10/18 03:36:27;;;;;;;86.38;40.35;;;;;;;10.06;54.58;101307.78;5069772;28;20473;-41
2022/10/18 03:38:53;;;;;;;20.33;9.57;;;;;;;10.23;54.12;101306.00;5069647;28;20032;-41
2022/10/18 03:41:19;;;;;;;13.10;8.05;;;;;;;10.27;54.01;101307.34;5069771;28;20063;-42
2022/10/18 03:43:45;;;;;;;11.45;7.28;;;;;;;10.29;54.06;101304.53;5070131;28;20037;-40
2022/10/18 03:46:11;;;;;;;17.88;7.88;;;;;;;10.32;54.27;101302.41;5069867;28;20567;-42
2022/10/18 03:48:36;;;;;;;12.07;7.15;;;;;;;10.32;54.58;101305.06;5069937;28;20035;-40
2022/10/18 03:51:02;;;;;;;15.32;7.38;;;;;;;10.37;54.95;101302.72;5069633;28;20032;-40
2022/10/18 03:53:27;;;;;;;11.93;6.93;;;;;;;10.22;55.39;101295.53;5069864;28;20036;-41
2022/10/18 03:55:53;;;;;;;11.73;6.90;;;;;;;10.21;56.00;101310.66;5070036;28;20029;-41
2022/10/18 03:58:19;;;;;;;10.95;7.60;;;;;;;10.32;54.92;101310.38;5070336;28;20052;-44
2022/10/18 04:00:48;;;;;;;14.50;7.72;;;;;;;10.47;53.86;101307.94;5070457;28;20024;-42
2022/10/18 04:03:14;;;;;;;45.50;23.80;;;;;;;10.37;53.42;101296.59;5070129;28;20025;-40
2022/10/18 04:05:39;;;;;;;31.25;17.08;;;;;;;9.97;54.40;101306.09;5070020;28;20035;-42
2022/10/18 04:08:04;;;;;;;85.30;44.20;;;;;;;9.87;54.15;101292.13;5069393;28;20352;-41
2022/10/18 04:10:30;;;;;;;55.15;29.30;;;;;;;9.71;55.05;101299.03;5069639;28;20044;-41
2022/10/18 04:12:55;;;;;;;10.63;7.82;;;;;;;9.99;54.29;101301.44;5069681;28;20103;-41
2022/10/18 04:15:21;;;;;;;11.20;7.18;;;;;;;9.67;56.73;101300.34;5069092;28;20655;-42
2022/10/18 04:17:46;;;;;;;13.95;6.97;;;;;;;10.02;60.74;101298.47;5069033;28;20025;-41
2022/10/18 04:20:12;;;;;;;15.57;7.00;;;;;;;10.13;55.62;101294.69;5067377;28;20024;-42
2022/10/18 04:22:37;;;;;;;11.30;6.70;;;;;;;10.23;53.93;101298.03;5067575;28;20053;-41
2022/10/18 04:25:03;;;;;;;12.00;7.25;;;;;;;10.38;53.67;101292.94;5068580;28;20388;-41
2022/10/18 04:27:29;;;;;;;13.60;7.05;;;;;;;10.28;53.46;101290.41;5055374;28;20029;-41
2022/10/18 04:29:54;;;;;;;11.43;7.13;;;;;;;10.25;53.18;101293.38;5047714;28;20492;-41
2022/10/18 04:32:19;;;;;;;14.75;7.90;;;;;;;10.06;54.12;101293.69;5063228;28;20115;-42
2022/10/18 04:34:45;;;;;;;12.02;7.32;;;;;;;10.13;53.56;101287.53;5069561;28;20024;-41
2022/10/18 04:37:10;;;;;;;13.05;7.07;;;;;;;10.08;56.44;101302.31;5073156;28;20655;-41
2022/10/18 04:39:36;;;;;;;15.07;7.65;;;;;;;9.85;59.21;101296.75;5072069;28;20055;-41
2022/10/18 04:42:01;;;;;;;15.77;7.15;;;;;;;9.98;57.45;101299.81;5071950;28;20476;-41
2022/10/18 04:44:27;;;;;;;13.38;7.18;;;;;;;10.02;57.67;101297.66;5072110;28;20024;-41
2022/10/18 04:46:52;;;;;;;12.73;8.68;;;;;;;10.16;54.23;101303.16;5072234;28;20419;-40
2022/10/18 04:49:17;;;;;;;54.97;27.42;;;;;;;10.37;53.31;101299.25;5071882;28;20419;-41
2022/10/18 04:51:43;;;;;;;23.00;11.82;;;;;;;10.08;54.01;101300.50;5068707;28;20027;-41
2022/10/18 04:54:08;;;;;;;15.45;8.00;;;;;;;9.77;54.65;101300.22;5057642;28;20029;-42
2022/10/18 04:56:34;;;;;;;14.13;6.93;;;;;;;10.13;53.94;101303.50;5066526;28;20447;-41
2022/10/18 04:58:59;;;;;;;15.65;9.02;;;;;;;10.26;55.28;101299.53;5070934;28;20042;-42
2022/10/18 05:01:24;;;;;;;14.45;7.55;;;;;;;10.52;55.08;101300.25;5070102;28;20025;-41
2022/10/18 05:03:54;;;;;;;15.07;7.10;;;;;;;10.60;54.46;101295.94;5052365;28;20017;-42
2022/10/18 05:06:20;;;;;;;14.98;7.15;;;;;;;11.06;52.53;101294.44;5051768;28;20722;-41
2022/10/18 05:08:45;;;;;;;32.08;16.10;;;;;;;11.21;52.85;101296.41;5050980;28;20116;-41
2022/10/18 05:11:11;;;;;;;13.80;9.25;;;;;;;11.50;51.28;101303.84;5069829;28;20116;-41
2022/10/18 05:13:37;;;;;;;44.45;24.50;;;;;;;11.84;50.66;101300.88;5067556;28;20038;-36
2022/10/18 05:16:03;;;;;;;72.30;39.33;;;;;;;12.12;50.37;101297.75;5091515;28;20725;-36
2022/10/18 05:18:29;;;;;;;25.65;16.38;;;;;;;12.39;51.78;101298.25;5085327;28;20024;-36
2022/10/18 05:20:55;;;;;;;46.72;25.23;;;;;;;12.65;49.87;101303.22;5073381;28;20106;-35
2022/10/18 05:23:20;;;;;;;12.23;7.78;;;;;;;12.95;48.52;101303.31;5072527;28;20024;-36
2022/10/18 05:25:45;;;;;;;15.10;6.68;;;;;;;13.54;46.78;101305.25;5068836;28;20368;-37
2022/10/18 05:28:11;;;;;;;12.00;6.25;;;;;;;13.84;45.56;101300.69;5068027;28;20473;-36
2022/10/18 05:30:38;;;;;;;11.82;6.28;;;;;;;13.99;44.98;101306.88;5067976;28;20030;-36
2022/10/18 05:33:04;;;;;;;12.48;6.95;;;;;;;14.14;44.02;101303.31;5069278;28;20040;-36
2022/10/18 05:35:29;;;;;;;11.50;6.70;;;;;;;14.28;43.28;101307.81;5069250;28;20089;-37
2022/10/18 05:37:55;;;;;;;12.55;6.97;;;;;;;14.81;42.11;101310.16;5069387;28;20028;-37
2022/10/18 05:40:20;;;;;;;13.48;6.78;;;;;;;15.27;41.75;101309.72;5069506;28;20036;-37
2022/10/18 05:42:46;;;;;;;12.20;6.82;;;;;;;15.60;40.15;101304.53;5069491;28;20484;-36
2022/10/18 05:45:11;;;;;;;14.00;6.80;;;;;;;15.97;40.11;101305.16;5069227;28;20100;-35
2022/10/18 05:47:36;;;;;;;11.18;7.28;;;;;;;16.34;39.50;101302.97;5070190;28;20024;-35
2022/10/18 05:50:02;;;;;;;12.52;7.75;;;;;;;16.68;38.52;101306.53;5070287;28;20028;-36
2022/10/18 05:52:28;;;;;;;10.98;7.00;;;;;;;16.92;38.67;101301.59;5070984;28;20035;-37
2022/10/18 05:54:53;;;;;;;14.30;7.25;;;;;;;17.38;37.56;101306.06;5070424;28;20021;-37
2022/10/18 05:57:18;;;;;;;11.48;7.10;;;;;;;17.51;37.10;101307.91;5070390;28;20025;-36
2022/10/18 05:59:44;;;;;;;13.90;6.70;;;;;;;17.85;36.88;101301.41;5070369;28;20185;-37
2022/10/18 06:02:10;;;;;;;12.52;7.18;;;;;;;18.06;36.57;101302.13;5070575;28;20112;-35
2022/10/18 06:04:36;;;;;;;18.08;7.57;;;;;;;18.35;36.14;101298.88;5071968;28;20059;-36
2022/10/18 06:07:01;;;;;;;10.30;6.40;;;;;;;18.67;35.54;101306.09;5071109;28;20099;-37
2022/10/18 06:09:27;;;;;;;12.50;7.32;;;;;;;18.96;34.91;101307.34;5070543;28;20471;-37
2022/10/18 06:11:53;;;;;;;11.80;6.97;;;;;;;19.34;34.58;101298.25;5069896;28;20033;-37
2022/10/18 06:14:18;;;;;;;13.38;6.65;;;;;;;19.77;33.61;101305.47;5069724;28;20020;-36
2022/10/18 06:16:43;;;;;;;15.27;7.43;;;;;;;20.11;33.60;101311.28;5069417;28;20103;-35
2022/10/18 06:19:09;;;;;;;12.00;7.40;;;;;;;20.39;33.18;101309.84;5069133;28;20020;-42
2022/10/18 06:21:34;;;;;;;14.18;6.50;;;;;;;20.83;32.71;101307.75;5068488;28;20056;-45
2022/10/18 06:24:00;;;;;;;11.00;5.93;;;;;;;20.94;32.52;101311.50;5069084;28;20031;-43
2022/10/18 06:26:26;;;;;;;9.95;6.13;;;;;;;21.31;32.46;101322.94;5069131;28;20461;-42
2022/10/18 06:28:52;;;;;;;10.05;6.70;;;;;;;21.67;32.04;101323.72;5068945;28;20047;-42
2022/10/18 06:31:20;;;;;;;10.00;6.20;;;;;;;21.88;31.54;101316.03;5069275;28;20500;-42
2022/10/18 06:33:45;;;;;;;11.93;6.70;;;;;;;22.00;31.38;101320.31;5069712;28;20507;-42
2022/10/18 06:36:22;;;;;;;10.75;6.10;;;;;;;22.20;31.14;101319.91;5070526;28;20035;-42
2022/10/18 06:38:49;;;;;;;11.35;6.53;;;;;;;22.38;30.63;101318.88;5070517;28;20033;-41
2022/10/18 06:41:15;;;;;;;12.05;6.85;;;;;;;22.31;30.50;101326.34;5070036;28;20024;-42
2022/10/18 06:43:40;;;;;;;12.32;6.45;;;;;;;22.38;30.71;101320.78;5070066;28;20016;-42
2022/10/18 06:46:06;;;;;;;13.95;5.60;;;;;;;22.42;30.37;101322.75;5070319;28;20023;-43
2022/10/18 06:48:34;;;;;;;8.77;5.00;;;;;;;22.58;30.09;101315.72;5069987;28;20036;-42
2022/10/18 06:51:02;;;;;;;9.05;5.20;;;;;;;22.64;29.88;101317.44;5069827;28;20106;-43
2022/10/18 06:53:32;;;;;;;10.57;4.93;;;;;;;22.14;30.48;101331.72;5069294;28;20031;-43
2022/10/18 06:56:03;;;;;;;8.25;4.88;;;;;;;22.11;30.22;101317.81;5069320;28;20032;-42
2022/10/18 06:58:29;;;;;;;19.77;5.70;;;;;;;22.49;29.43;101317.19;5069456;28;20105;-42
2022/10/18 07:00:56;;;;;;;13.30;5.13;;;;;;;22.53;29.64;101322.94;5069650;28;20381;-41
2022/10/18 07:03:21;;;;;;;14.10;5.03;;;;;;;23.01;28.60;101307.97;5069514;28;20028;-42
2022/10/18 07:05:48;;;;;;;13.32;5.70;;;;;;;22.83;28.78;101301.75;5069747;28;20385;-42
2022/10/18 07:08:13;;;;;;;12.63;6.68;;;;;;;23.39;28.13;101306.38;5069875;28;20119;-42
2022/10/18 07:10:39;;;;;;;12.25;6.10;;;;;;;23.45;28.18;101299.09;5069395;28;20522;-42
2022/10/18 07:13:04;;;;;;;13.68;7.50;;;;;;;23.05;28.54;101308.31;5069221;28;20028;-43
2022/10/18 07:15:30;;;;;;;10.63;6.38;;;;;;;23.29;28.05;101298.09;5069330;28;20039;-42
2022/10/18 07:17:55;;;;;;;13.10;6.00;;;;;;;23.76;27.76;101297.56;5069470;28;20032;-42
2022/10/18 07:20:21;;;;;;;21.73;8.70;;;;;;;24.14;27.18;101295.84;5068924;28;20043;-42
2022/10/18 07:22:46;;;;;;;14.77;7.15;;;;;;;24.37;26.91;101294.72;5069145;28;20053;-42
2022/10/18 07:25:12;;;;;;;10.07;5.63;;;;;;;24.11;27.10;101283.59;5069957;28;20040;-41
2022/10/18 07:27:42;;;;;;;18.98;9.32;;;;;;;23.91;27.47;101286.94;5067929;28;20044;-45
2022/10/18 07:30:09;;;;;;;8.35;5.32;;;;;;;24.17;27.00;101282.56;5069391;28;20066;-42
2022/10/18 07:32:35;;;;;;;12.05;5.28;;;;;;;24.07;27.12;101287.09;5069030;28;20028;-42
2022/10/18 07:35:01;;;;;;;9.40;6.00;;;;;;;23.62;27.62;101280.84;5069233;28;20465;-41
2022/10/18 07:37:27;;;;;;;11.52;5.53;;;;;;;23.60;27.74;101277.56;5069304;28;20055;-41
2022/10/18 07:39:53;;;;;;;17.23;8.15;;;;;;;23.56;27.67;101271.81;5069287;28;20119;-41
2022/10/18 07:42:18;;;;;;;15.25;6.25;;;;;;;23.67;27.92;101278.19;5069265;28;20186;-41
2022/10/18 07:44:43;;;;;;;11.55;6.03;;;;;;;24.17;27.22;101281.75;5069406;28;20407;-40
2022/10/18 07:47:09;;;;;;;10.52;5.70;;;;;;;24.05;27.18;101272.94;5069307;28;20017;-42
2022/10/18 07:49:34;;;;;;;12.38;5.75;;;;;;;23.45;27.85;101271.94;5069190;28;20059;-41
2022/10/18 07:52:00;;;;;;;9.35;5.53;;;;;;;23.75;27.42;101261.44;5068796;28;20036;-43
2022/10/18 07:54:25;;;;;;;12.63;6.25;;;;;;;23.87;27.48;101257.78;5068436;28;20027;-43
2022/10/18 07:56:50;;;;;;;11.05;5.93;;;;;;;23.75;27.80;101258.72;5068692;28;20504;-42
2022/10/18 07:59:16;;;;;;;17.60;8.35;;;;;;;23.36;28.48;101247.09;5068721;28;20032;-42
2022/10/18 08:01:41;;;;;;;15.98;7.45;;;;;;;23.01;29.00;101256.41;5069207;28;20025;-41
2022/10/18 08:04:07;;;;;;;7.88;5.25;;;;;;;23.14;28.56;101249.81;5069096;28;20039;-41
2022/10/18 08:06:32;;;;;;;27.10;10.00;;;;;;;23.28;29.01;101242.94;5069140;28;20486;-43
2022/10/18 08:08:58;;;;;;;18.48;7.00;;;;;;;23.79;28.24;101245.47;5072242;28;20446;-42
2022/10/18 08:11:24;;;;;;;15.35;6.78;;;;;;;24.28;27.62;101250.84;5072758;28;20503;-43
2022/10/18 08:13:51;;;;;;;26.27;11.07;;;;;;;24.61;27.54;101234.53;5072980;28;20025;-42
2022/10/18 08:16:27;;;;;;;12.10;5.65;;;;;;;24.56;27.56;101227.97;5072877;28;20406;-41
2022/10/18 08:18:56;;;;;;;15.35;5.57;;;;;;;24.79;26.40;101236.84;5072941;28;20032;-43
2022/10/18 08:21:22;;;;;;;7.68;4.40;;;;;;;23.74;28.27;101226.34;5073509;28;20527;-42
2022/10/18 08:23:48;;;;;;;14.38;6.10;;;;;;;24.05;28.08;101222.09;5089363;28;20115;-43
2022/10/18 08:26:16;;;;;;;8.18;4.57;;;;;;;23.86;35.25;101223.53;5071641;28;20070;-42
2022/10/18 08:28:42;;;;;;;8.95;4.88;;;;;;;24.15;30.84;101219.44;5071882;28;20028;-41
2022/10/18 08:31:13;;;;;;;7.30;4.60;;;;;;;24.83;31.42;101208.03;5071949;28;20024;-41
2022/10/18 08:33:39;;;;;;;9.75;4.47;;;;;;;25.56;29.45;101212.72;5072445;28;20012;-43
2022/10/18 08:36:07;;;;;;;11.68;4.40;;;;;;;25.46;28.13;101208.06;5072353;28;20457;-42
2022/10/18 08:38:35;;;;;;;28.88;6.57;;;;;;;25.51;28.57;101205.34;5071840;28;20103;-41
2022/10/18 08:41:40;;;;;;;20.00;5.45;;;;;;;26.24;26.07;101195.38;5071977;28;20078;-43
2022/10/18 08:44:20;;;;;;;8.50;4.60;;;;;;;26.06;27.31;101194.00;5070370;28;20556;-42
2022/10/18 08:47:13;;;;;;;8.40;4.72;;;;;;;25.94;26.38;101191.53;5071366;28;20504;-42
2022/10/18 08:50:16;;;;;;;5.82;4.60;;;;;;;24.50;28.26;101182.75;5071957;28;20024;-43
2022/10/18 08:52:52;;;;;;;9.55;4.82;;;;;;;25.16;27.67;101179.56;5057530;28;20032;-43
2022/10/18 08:55:35;;;;;;;8.00;4.45;;;;;;;25.72;26.92;101176.22;5068977;28;20024;-42
2022/10/18 08:58:04;;;;;;;11.07;5.18;;;;;;;25.70;26.84;101172.97;5069186;28;20552;-42
2022/10/18 09:00:33;;;;;;;8.30;4.97;;;;;;;25.45;27.09;101175.63;5071430;28;20480;-42
2022/10/18 09:03:20;;;;;;;8.20;4.53;;;;;;;25.75;27.10;101172.13;5070298;28;20031;-42
2022/10/18 09:06:10;;;;;;;12.35;4.90;;;;;;;26.14;26.53;101166.16;5071170;28;20059;-42
2022/10/18 09:08:57;;;;;;;11.05;5.32;;;;;;;25.19;27.90;101170.06;5069840;28;20076;-42
2022/10/18 09:11:39;;;;;;;7.28;4.70;;;;;;;25.72;27.01;101169.94;5052348;28;20029;-42
2022/10/18 09:14:04;;;;;;;10.82;4.80;;;;;;;25.93;26.95;101158.00;5052421;28;20017;-42
2022/10/18 09:16:37;;;;;;;10.13;4.70;;;;;;;26.08;26.80;101146.28;5052637;28;20033;-42
2022/10/18 09:19:13;;;;;;;7.40;4.43;;;;;;;26.07;26.29;101155.56;5050986;28;20025;-42
2022/10/18 09:22:18;;;;;;;6.95;4.38;;;;;;;25.08;27.41;101155.59;5051877;28;20056;-43
2022/10/18 09:25:09;;;;;;;6.47;4.60;;;;;;;24.44;28.91;101142.97;5070164;28;20113;-43
2022/10/18 09:27:52;;;;;;;9.55;4.50;;;;;;;24.95;28.04;101146.00;5071856;28;20025;-46
2022/10/18 09:30:44;;;;;;;7.25;4.20;;;;;;;25.28;27.45;101143.16;5071455;28;20154;-44
2022/10/18 09:33:45;;;;;;;6.35;4.20;;;;;;;25.56;27.57;101131.75;5071660;28;20127;-43
2022/10/18 09:36:17;;;;;;;7.78;4.70;;;;;;;25.54;27.89;101127.69;5070226;28;20215;-42
2022/10/18 09:38:50;;;;;;;8.85;4.50;;;;;;;25.77;27.63;101117.34;5069619;28;20059;-43
2022/10/18 09:41:23;;;;;;;10.00;4.95;;;;;;;26.00;27.23;101119.56;5070001;28;20460;-41
2022/10/18 09:44:07;;;;;;;11.50;4.80;;;;;;;26.26;26.95;101109.44;5070295;28;20056;-44
2022/10/18 09:46:38;;;;;;;5.88;4.25;;;;;;;25.94;27.26;101104.28;5069634;28;20032;-44
2022/10/18 09:49:12;;;;;;;9.45;4.88;;;;;;;26.52;26.68;101102.00;5069538;28;20051;-43
2022/10/18 09:51:41;;;;;;;10.43;4.57;;;;;;;25.95;27.18;101100.50;5069213;28;20047;-42
2022/10/18 09:54:13;;;;;;;8.53;4.90;;;;;;;26.18;27.39;101095.53;5070117;28;20021;-42
2022/10/18 09:56:45;;;;;;;11.55;4.70;;;;;;;25.87;27.12;101092.81;5070340;28;20351;-43
2022/10/18 09:59:35;;;;;;;9.63;4.60;;;;;;;25.37;27.33;101092.50;5071032;28;20468;-44
2022/10/18 10:02:00;;;;;;;8.82;4.68;;;;;;;25.29;28.06;101079.41;5071180;28;20048;-42
2022/10/18 10:04:26;;;;;;;6.63;4.43;;;;;;;25.10;28.04;101073.63;5071147;28;20447;-43
2022/10/18 10:06:54;;;;;;;8.02;4.70;;;;;;;25.08;28.26;101073.88;5070740;28;20048;-42
2022/10/18 10:09:35;;;;;;;12.07;4.80;;;;;;;24.51;28.84;101066.56;5070745;28;20440;-42
2022/10/18 10:12:01;;;;;;;11.68;5.22;;;;;;;24.73;28.66;101061.81;5070080;28;20035;-43
2022/10/18 10:14:29;;;;;;;8.98;4.97;;;;;;;24.91;27.91;101057.78;5070447;28;20017;-44
2022/10/18 10:17:05;;;;;;;11.07;5.23;;;;;;;24.76;28.06;101052.28;5070774;28;20024;-42
2022/10/18 10:19:36;;;;;;;18.67;5.22;;;;;;;24.66;29.05;101050.34;5070786;28;20287;-42
2022/10/18 10:22:05;;;;;;;12.70;4.80;;;;;;;24.24;29.31;101037.59;5069141;28;20109;-42
2022/10/18 10:24:42;;;;;;;9.38;4.32;;;;;;;24.40;29.39;101033.03;5071014;28;20036;-42
2022/10/18 10:27:34;;;;;;;12.85;5.00;;;;;;;24.75;29.08;101034.31;5070519;28;20420;-42
2022/10/18 10:30:01;;;;;;;10.43;4.55;;;;;;;25.44;28.22;101021.41;5069773;28;20043;-42
2022/10/18 10:32:46;;;;;;;7.75;4.70;;;;;;;25.96;27.37;101011.31;5070396;28;20056;-43
2022/10/18 10:35:39;;;;;;;11.77;4.50;;;;;;;26.37;27.11;101006.56;5070435;28;20063;-43
2022/10/18 10:38:05;;;;;;;6.82;4.40;;;;;;;26.21;26.58;101000.31;5070616;28;20032;-42
2022/10/18 10:40:34;;;;;;;10.98;4.30;;;;;;;25.54;27.27;100991.44;5070722;28;20025;-44
2022/10/18 10:43:00;;;;;;;12.77;4.85;;;;;;;26.22;26.39;100987.53;5070357;28;20081;-44
2022/10/18 10:45:30;;;;;;;8.00;4.00;;;;;;;26.68;25.47;100977.22;5070916;28;20031;-42
2022/10/18 10:48:04;;;;;;;8.18;4.35;;;;;;;26.58;25.97;100966.34;5070230;28;20103;-42
2022/10/18 10:50:30;;;;;;;10.30;6.07;;;;;;;27.15;25.16;100955.91;5070202;28;20035;-41
2022/10/18 10:52:55;;;;;;;9.80;5.03;;;;;;;27.42;24.85;100955.41;5070281;28;20032;-43
2022/10/18 10:55:32;;;;;;;8.20;4.40;;;;;;;27.53;24.28;100950.69;5070016;28;20400;-44
2022/10/18 10:57:58;;;;;;;6.53;4.20;;;;;;;27.80;24.11;100946.59;5069761;28;20032;-42
2022/10/18 11:00:42;;;;;;;9.32;3.90;;;;;;;27.85;24.01;100939.13;5069697;28;20051;-43
2022/10/18 11:03:19;;;;;;;8.30;3.90;;;;;;;26.77;24.20;100920.13;5069741;28;20503;-42
2022/10/18 11:05:54;;;;;;;9.40;4.07;;;;;;;27.20;23.26;100927.72;5069992;28;20103;-43
2022/10/18 11:08:26;;;;;;;8.18;3.95;;;;;;;27.35;23.86;100918.59;5069908;28;20420;-43
2022/10/18 11:11:25;;;;;;;9.32;4.00;;;;;;;26.97;23.46;100912.88;5069714;28;20059;-43
2022/10/18 11:13:58;;;;;;;11.57;4.60;;;;;;;25.66;25.16;100910.19;5069701;28;20039;-43
2022/10/18 11:16:49;;;;;;;8.10;4.10;;;;;;;25.84;26.19;100902.53;5069715;28;20024;-42
2022/10/18 11:19:43;;;;;;;7.93;4.20;;;;;;;25.89;25.25;100895.16;5069538;28;20553;-42
2022/10/18 11:22:16;;;;;;;8.27;4.10;;;;;;;26.51;24.86;100886.69;5066230;28;20079;-41
2022/10/18 11:24:42;;;;;;;7.72;4.32;;;;;;;26.86;23.79;100885.63;5069578;28;20093;-42
2022/10/18 11:27:24;;;;;;;11.60;4.72;;;;;;;26.26;25.12;100872.09;5069255;28;20028;-43
2022/10/18 11:30:05;;;;;;;7.25;4.50;;;;;;;26.70;24.52;100878.66;5069393;28;20028;-43
2022/10/18 11:32:58;;;;;;;8.60;4.70;;;;;;;26.46;24.38;100865.69;5069339;28;20032;-42